createdAt,value
2023-05-12T00:01:16.828Z,101846.06
2023-05-12T00:03:43.451Z,101841.19
2023-05-12T00:06:10.357Z,101843.28
2023-05-12T00:08:36.816Z,101847.34
2023-05-12T00:11:03.355Z,101843.47
2023-05-12T00:13:30.201Z,101845.91
2023-05-12T00:15:59.061Z,101836.28
2023-05-12T00:18:26.323Z,101836.78
2023-05-12T00:20:54.409Z,101840.22
2023-05-12T00:23:22.185Z,101842.81
2023-05-12T00:25:49.022Z,101840.06
2023-05-12T00:28:15.517Z,101840.22
2023-05-12T00:30:41.911Z,101836.78
2023-05-12T00:33:08.327Z,101828.97
2023-05-12T00:35:34.728Z,101834.34
2023-05-12T00:38:01.129Z,101830.63
2023-05-12T00:40:27.523Z,101833.53
2023-05-12T00:42:53.923Z,101827.00
2023-05-12T00:45:21.779Z,101828.31
2023-05-12T00:47:48.565Z,101825.88
2023-05-12T00:50:15.354Z,101819.03
2023-05-12T00:52:42.540Z,101823.59
2023-05-12T00:55:09.359Z,101817.91
2023-05-12T00:57:35.742Z,101821.16
2023-05-12T01:00:02.177Z,101825.56
2023-05-12T01:02:28.968Z,101816.75
2023-05-12T01:04:55.455Z,101812.56
2023-05-12T01:07:23.050Z,101813.03
2023-05-12T01:09:54.526Z,101808.66
2023-05-12T01:12:21.602Z,101808.97
2023-05-12T01:14:48.544Z,101811.56
2023-05-12T01:17:20.800Z,101800.34
2023-05-12T01:19:59.967Z,101798.91
2023-05-12T01:22:31.250Z,101790.13
2023-05-12T01:24:59.784Z,101790.75
2023-05-12T01:27:27.434Z,101793.22
2023-05-12T01:29:57.764Z,101793.03
2023-05-12T01:32:24.231Z,101794.69
2023-05-12T01:34:50.680Z,101791.13
2023-05-12T01:37:17.101Z,101794.53
2023-05-12T01:39:43.703Z,101792.56
2023-05-12T01:42:10.263Z,101787.53
2023-05-12T01:44:36.677Z,101786.56
2023-05-12T01:47:03.153Z,101796.81
2023-05-12T01:49:29.596Z,101798.59
2023-05-12T01:51:56.101Z,101801.84
2023-05-12T01:54:22.701Z,101799.41
2023-05-12T01:56:49.140Z,101801.34
2023-05-12T01:59:15.726Z,101798.59
2023-05-12T02:01:42.342Z,101803.13
2023-05-12T02:04:09.135Z,101804.94
2023-05-12T02:06:35.923Z,101798.75
2023-05-12T02:09:02.674Z,101802.16
2023-05-12T02:11:29.076Z,101806.56
2023-05-12T02:13:55.472Z,101797.94
2023-05-12T02:16:22.026Z,101800.53
2023-05-12T02:18:48.490Z,101791.75
2023-05-12T02:21:14.965Z,101787.53
2023-05-12T02:23:41.448Z,101789.16
2023-05-12T02:26:07.864Z,101792.72
2023-05-12T02:28:34.254Z,101794.69
2023-05-12T02:31:00.692Z,101786.88
2023-05-12T02:33:27.089Z,101788.53
2023-05-12T02:35:53.500Z,101783.47
2023-05-12T02:38:19.903Z,101781.84
2023-05-12T02:40:46.659Z,101783.47
2023-05-12T02:43:13.162Z,101786.88
2023-05-12T02:45:40.127Z,101788.00
2023-05-12T02:48:06.693Z,101777.59
2023-05-12T02:50:33.196Z,101774.03
2023-05-12T02:52:59.653Z,101785.56
2023-05-12T02:55:26.211Z,101780.38
2023-05-12T02:57:53.421Z,101774.38
2023-05-12T03:00:20.146Z,101783.97
2023-05-12T03:02:46.761Z,101784.75
2023-05-12T03:05:13.338Z,101777.94
2023-05-12T03:07:39.904Z,101777.94
2023-05-12T03:10:06.936Z,101785.91
2023-05-12T03:12:33.367Z,101780.88
2023-05-12T03:14:59.788Z,101775.50
2023-05-12T03:17:26.429Z,101772.91
2023-05-12T03:19:52.864Z,101776.31
2023-05-12T03:22:19.377Z,101772.72
2023-05-12T03:24:46.385Z,101772.56
2023-05-12T03:27:12.777Z,101769.97
2023-05-12T03:29:39.218Z,101770.63
2023-05-12T03:32:06.177Z,101770.47
2023-05-12T03:34:32.555Z,101774.84
2023-05-12T03:36:58.914Z,101763.47
2023-05-12T03:39:25.410Z,101762.53
2023-05-12T03:41:51.844Z,101759.75
2023-05-12T03:44:18.717Z,101767.56
2023-05-12T03:46:45.514Z,101761.53
2023-05-12T03:49:12.833Z,101758.13
2023-05-12T03:51:39.353Z,101770.16
2023-05-12T03:54:05.740Z,101760.56
2023-05-12T03:56:32.178Z,101767.56
2023-05-12T03:58:58.586Z,101762.19
2023-05-12T04:01:24.982Z,101754.41
2023-05-12T04:03:51.519Z,101757.81
2023-05-12T04:06:17.974Z,101752.44
2023-05-12T04:08:44.382Z,101755.03
2023-05-12T04:11:11.003Z,101758.28
2023-05-12T04:13:37.424Z,101759.75
2023-05-12T04:16:04.254Z,101759.59
2023-05-12T04:18:30.866Z,101766.41
2023-05-12T04:20:57.351Z,101768.22
2023-05-12T04:23:23.985Z,101766.72
2023-05-12T04:25:50.491Z,101770.00
2023-05-12T04:28:16.883Z,101764.63
2023-05-12T04:30:43.350Z,101769.50
2023-05-12T04:33:10.092Z,101766.91
2023-05-12T04:35:36.832Z,101772.59
2023-05-12T04:38:03.636Z,101769.84
2023-05-12T04:40:32.079Z,101774.88
2023-05-12T04:43:00.581Z,101775.50
2023-05-12T04:45:27.067Z,101774.56
2023-05-12T04:47:53.528Z,101773.41
2023-05-12T04:50:20.077Z,101776.63
2023-05-12T04:52:46.554Z,101784.28
2023-05-12T04:55:12.930Z,101778.91
2023-05-12T04:57:41.268Z,101783.94
2023-05-12T05:00:09.072Z,101783.00
2023-05-12T05:02:35.875Z,101787.88
2023-05-12T05:05:02.426Z,101793.72
2023-05-12T05:07:28.878Z,101796.31
2023-05-12T05:09:55.251Z,101807.19
2023-05-12T05:12:21.671Z,101814.84
2023-05-12T05:14:48.071Z,101815.50
2023-05-12T05:17:14.708Z,101813.38
2023-05-12T05:19:54.987Z,101814.84
2023-05-12T05:22:25.210Z,101818.91
2023-05-12T05:24:51.876Z,101822.97
2023-05-12T05:27:18.579Z,101820.84
2023-05-12T05:29:44.980Z,101827.50
2023-05-12T05:32:11.405Z,101827.00
2023-05-12T05:34:38.236Z,101822.28
2023-05-12T05:37:05.045Z,101820.34
2023-05-12T05:39:31.544Z,101822.63
2023-05-12T05:41:58.194Z,101824.88
2023-05-12T05:44:25.157Z,101822.59
2023-05-12T05:46:51.833Z,101829.94
2023-05-12T05:49:18.586Z,101822.59
2023-05-12T05:51:44.953Z,101823.06
2023-05-12T05:54:12.031Z,101834.31
2023-05-12T05:56:38.582Z,101840.81
2023-05-12T05:59:05.288Z,101832.00
2023-05-12T06:01:32.423Z,101843.09
2023-05-12T06:03:59.198Z,101840.94
2023-05-12T06:06:26.009Z,101846.31
2023-05-12T06:08:52.449Z,101855.41
2023-05-12T06:11:18.830Z,101853.44
2023-05-12T06:13:45.320Z,101851.31
2023-05-12T06:16:11.789Z,101851.28
2023-05-12T06:18:38.630Z,101862.00
2023-05-12T06:21:06.149Z,101856.63
2023-05-12T06:23:32.618Z,101861.66
2023-05-12T06:25:59.198Z,101867.00
2023-05-12T06:28:25.605Z,101864.72
2023-05-12T06:30:51.989Z,101861.41
2023-05-12T06:33:18.430Z,101868.91
2023-05-12T06:35:44.858Z,101868.91
2023-05-12T06:38:11.257Z,101874.25
2023-05-12T06:40:37.658Z,101864.78
2023-05-12T06:43:04.070Z,101875.50
2023-05-12T06:45:30.730Z,101878.91
2023-05-12T06:47:57.838Z,101872.38
2023-05-12T06:50:24.340Z,101881.28
2023-05-12T06:52:50.853Z,101889.25
2023-05-12T06:55:20.049Z,101896.56
2023-05-12T06:57:46.636Z,101892.16
2023-05-12T07:00:13.876Z,101898.19
2023-05-12T07:02:40.542Z,101896.22
2023-05-12T07:05:07.251Z,101901.72
2023-05-12T07:07:33.688Z,101893.84
2023-05-12T07:10:00.310Z,101901.28
2023-05-12T07:12:26.937Z,101900.59
2023-05-12T07:14:53.383Z,101899.91
2023-05-12T07:17:19.739Z,101896.34
2023-05-12T07:19:46.113Z,101899.63
2023-05-12T07:22:17.580Z,101907.50
2023-05-12T07:24:44.208Z,101911.91
2023-05-12T07:27:10.934Z,101901.38
2023-05-12T07:29:37.675Z,101908.84
2023-05-12T07:32:04.858Z,101903.06
2023-05-12T07:34:32.509Z,101904.00
2023-05-12T07:36:59.563Z,101907.00
2023-05-12T07:39:25.933Z,101911.63
2023-05-12T07:41:54.011Z,101906.25
2023-05-12T07:44:20.753Z,101909.72
2023-05-12T07:46:47.251Z,101913.00
2023-05-12T07:49:13.733Z,101915.75
2023-05-12T07:51:40.143Z,101917.13
2023-05-12T07:54:07.313Z,101916.84
2023-05-12T07:56:33.870Z,101926.75
2023-05-12T07:59:00.306Z,101920.69
2023-05-12T08:01:26.724Z,101921.97
2023-05-12T08:03:53.192Z,101921.88
2023-05-12T08:06:19.629Z,101920.72
2023-05-12T08:08:46.152Z,101927.28
2023-05-12T08:11:12.775Z,101925.91
2023-05-12T08:13:39.597Z,101914.59
2023-05-12T08:16:06.277Z,101921.69
2023-05-12T08:18:32.817Z,101917.41
2023-05-12T08:20:59.235Z,101926.94
2023-05-12T08:23:25.726Z,101928.97
2023-05-12T08:25:52.098Z,101928.50
2023-05-12T08:28:18.529Z,101925.91
2023-05-12T08:30:45.555Z,101928.78
2023-05-12T08:33:12.670Z,101933.06
2023-05-12T08:35:39.590Z,101936.19
2023-05-12T08:38:06.614Z,101936.59
2023-05-12T08:40:54.480Z,101941.09
2023-05-12T08:43:26.288Z,101941.31
2023-05-12T08:45:57.459Z,101954.03
2023-05-12T08:48:29.162Z,101941.75
2023-05-12T08:50:57.853Z,101946.00
2023-05-12T08:53:25.728Z,101940.34
2023-05-12T08:57:08.113Z,101949.66
2023-05-12T08:58:42.209Z,101953.69
2023-05-12T09:01:11.699Z,101939.09
2023-05-12T09:03:38.998Z,101945.09
2023-05-12T09:06:06.635Z,101950.28
2023-05-12T09:08:34.934Z,101959.63
2023-05-12T09:11:02.488Z,101941.03
2023-05-12T09:14:00.967Z,101969.44
2023-05-12T09:16:30.232Z,101970.06
2023-05-12T09:18:58.857Z,101965.22
2023-05-12T09:21:26.460Z,101963.63
2023-05-12T09:24:06.082Z,101965.00
2023-05-12T09:26:45.337Z,101965.84
2023-05-12T09:29:20.838Z,101966.25
2023-05-12T09:32:00.270Z,101960.56
2023-05-12T09:34:31.766Z,101967.66
2023-05-12T09:37:01.130Z,101976.53
2023-05-12T09:39:28.844Z,101974.34
2023-05-12T09:41:55.831Z,101979.00
2023-05-12T09:44:23.977Z,101976.75
2023-05-12T09:46:51.910Z,101987.06
2023-05-12T09:49:20.366Z,101988.25
2023-05-12T09:51:59.219Z,101978.97
2023-05-12T09:54:29.848Z,101980.38
2023-05-12T09:57:00.341Z,101986.25
2023-05-12T09:59:31.391Z,101991.91
2023-05-12T10:02:00.784Z,101982.53
2023-05-12T10:04:29.975Z,101983.09
2023-05-12T10:06:58.411Z,101980.81
2023-05-12T10:09:39.174Z,101978.78
2023-05-12T10:12:06.490Z,101986.00
2023-05-12T10:14:33.766Z,101990.78
2023-05-12T10:17:00.890Z,101989.19
2023-05-12T10:19:32.935Z,101995.53
2023-05-12T10:22:00.529Z,101979.06
2023-05-12T10:24:27.585Z,101978.19
2023-05-12T10:26:57.572Z,101981.19
2023-05-12T10:29:29.980Z,101981.63
2023-05-12T10:31:57.638Z,101988.31
2023-05-12T10:34:30.620Z,101980.75
2023-05-12T10:36:58.296Z,101984.94
2023-05-12T10:39:29.656Z,101991.75
2023-05-12T10:42:06.437Z,101984.72
2023-05-12T10:44:32.963Z,101989.94
2023-05-12T10:47:02.143Z,101982.78
2023-05-12T10:49:40.042Z,101988.25
2023-05-12T10:52:07.460Z,101992.47
2023-05-12T10:54:44.303Z,101979.44
2023-05-12T10:57:18.203Z,101990.97
2023-05-12T11:00:01.610Z,101988.06
2023-05-12T11:02:36.244Z,101984.06
2023-05-12T11:05:12.471Z,101990.31
2023-05-12T11:07:39.868Z,101980.88
2023-05-12T11:10:07.944Z,101983.88
2023-05-12T11:12:37.839Z,101992.53
2023-05-12T11:15:06.626Z,101978.09
2023-05-12T11:17:33.563Z,101991.06
2023-05-12T11:20:01.355Z,101989.25
2023-05-12T11:22:28.277Z,101987.13
2023-05-12T11:24:54.748Z,101987.06
2023-05-12T11:27:23.153Z,101996.25
2023-05-12T11:29:58.270Z,101999.91
2023-05-12T11:32:24.821Z,101997.81
2023-05-12T11:34:51.325Z,101995.25
2023-05-12T11:37:21.048Z,102001.94
2023-05-12T11:39:48.009Z,101991.59
2023-05-12T11:42:16.300Z,101997.19
2023-05-12T11:44:49.160Z,101992.66
2023-05-12T11:47:16.662Z,101992.25
2023-05-12T11:49:51.785Z,101989.56
2023-05-12T11:52:20.222Z,101999.03
2023-05-12T11:54:51.539Z,101997.03
2023-05-12T11:57:27.489Z,101989.63
2023-05-12T12:00:07.183Z,101998.22
2023-05-12T12:02:34.463Z,101994.69
2023-05-12T12:05:01.200Z,101995.13
2023-05-12T12:07:36.953Z,101995.72
2023-05-12T12:10:13.841Z,102000.81
2023-05-12T12:12:41.175Z,101990.69
2023-05-12T12:15:08.575Z,101994.34
2023-05-12T12:17:34.948Z,101986.16
2023-05-12T12:20:01.587Z,101988.22
2023-05-12T12:22:28.049Z,101997.31
2023-05-12T12:24:54.406Z,101994.16
2023-05-12T12:27:20.758Z,101992.66
2023-05-12T12:29:47.268Z,101999.34
2023-05-12T12:32:13.670Z,102008.09
2023-05-12T12:34:41.329Z,102000.81
2023-05-12T12:37:07.785Z,102007.72
2023-05-12T12:39:34.222Z,102004.25
2023-05-12T12:42:00.570Z,102011.19
2023-05-12T12:44:27.332Z,101997.44
2023-05-12T12:46:54.004Z,102000.63
2023-05-12T12:49:20.445Z,102004.34
2023-05-12T12:51:47.377Z,102009.00
2023-05-12T12:54:15.217Z,102006.75
2023-05-12T12:56:43.148Z,102001.66
2023-05-12T12:59:09.576Z,102009.03
2023-05-12T13:01:36.099Z,102008.78
2023-05-12T13:04:02.754Z,102005.03
2023-05-12T13:06:29.240Z,102001.09
2023-05-12T13:08:56.340Z,102006.63
2023-05-12T13:11:22.748Z,102010.84
2023-05-12T13:13:49.118Z,102000.69
2023-05-12T13:16:15.860Z,101997.84
2023-05-12T13:18:42.374Z,101997.25
2023-05-12T13:21:08.840Z,101998.75
2023-05-12T13:23:35.320Z,102000.84
2023-05-12T13:26:01.715Z,102002.03
2023-05-12T13:28:28.895Z,101997.63
2023-05-12T13:30:55.409Z,102001.25
2023-05-12T13:33:22.026Z,101989.53
2023-05-12T13:35:48.457Z,102001.09
2023-05-12T13:38:15.160Z,101988.81
2023-05-12T13:40:41.829Z,101995.25
2023-05-12T13:43:08.436Z,101988.00
2023-05-12T13:45:34.896Z,101989.16
2023-05-12T13:48:01.350Z,101997.31
2023-05-12T13:50:27.806Z,101989.25
2023-05-12T13:52:54.242Z,102000.59
2023-05-12T13:55:21.643Z,101992.06
2023-05-12T13:57:48.879Z,101999.84
2023-05-12T14:00:17.208Z,101998.69
2023-05-12T14:02:43.843Z,102002.47
2023-05-12T14:05:10.684Z,101999.34
2023-05-12T14:07:37.419Z,101996.69
2023-05-12T14:10:04.003Z,102003.63
2023-05-12T14:12:31.291Z,101992.19
2023-05-12T14:15:07.361Z,101992.50
2023-05-12T14:17:44.341Z,101990.66
2023-05-12T14:20:11.512Z,101988.72
2023-05-12T14:22:37.862Z,101987.25
2023-05-12T14:25:04.861Z,101992.13
2023-05-12T14:27:31.249Z,101992.66
2023-05-12T14:29:57.717Z,102002.13
2023-05-12T14:32:24.185Z,101999.94
2023-05-12T14:34:50.571Z,101991.09
2023-05-12T14:37:16.958Z,101992.63
2023-05-12T14:39:43.752Z,101984.44
2023-05-12T14:42:10.142Z,101991.91
2023-05-12T14:44:38.847Z,101985.34
2023-05-12T14:47:07.451Z,101979.72
2023-05-12T14:49:35.173Z,101982.00
2023-05-12T14:52:02.492Z,101987.25
2023-05-12T14:54:28.868Z,101990.88
2023-05-12T14:56:55.429Z,101975.56
2023-05-12T14:59:22.076Z,101973.63
2023-05-12T15:01:48.621Z,101976.50
2023-05-12T15:04:15.160Z,101984.09
2023-05-12T15:06:41.719Z,101985.13
2023-05-12T15:09:08.435Z,101989.72
2023-05-12T15:11:34.799Z,101992.72
2023-05-12T15:14:01.390Z,101992.16
2023-05-12T15:16:28.050Z,101991.00
2023-05-12T15:18:54.650Z,101991.34
2023-05-12T15:21:21.126Z,101988.00
2023-05-12T15:23:47.793Z,101988.44
2023-05-12T15:26:31.220Z,101986.59
2023-05-12T15:28:59.495Z,101979.06
2023-05-12T15:31:28.679Z,101978.75
2023-05-12T15:33:56.422Z,101974.66
2023-05-12T15:36:22.876Z,101980.44
2023-05-12T15:38:49.330Z,101992.63
2023-05-12T15:41:15.768Z,101998.28
2023-05-12T15:43:42.421Z,102016.41
2023-05-12T15:46:10.761Z,102027.44
2023-05-12T15:48:37.522Z,102043.38
2023-05-12T15:51:04.170Z,102049.94
2023-05-12T15:53:33.512Z,102038.63
2023-05-12T15:56:04.154Z,102032.38
2023-05-12T15:58:31.394Z,102019.84
2023-05-12T16:00:58.292Z,102018.22
2023-05-12T16:03:24.882Z,102005.84
2023-05-12T16:05:51.857Z,102011.72
2023-05-12T16:08:18.789Z,102016.94
2023-05-12T16:10:45.302Z,102017.31
2023-05-12T16:13:11.723Z,102013.03
2023-05-12T16:15:38.374Z,102018.25
2023-05-12T16:18:06.954Z,102016.59
2023-05-12T16:20:35.096Z,102018.59
2023-05-12T16:23:02.340Z,102023.66
2023-05-12T16:25:29.061Z,102023.03
2023-05-12T16:27:55.896Z,102006.00
2023-05-12T16:30:22.347Z,102009.19
2023-05-12T16:32:48.742Z,102013.22
2023-05-12T16:35:15.174Z,102013.44
2023-05-12T16:37:41.620Z,102012.66
2023-05-12T16:40:09.518Z,102008.38
2023-05-12T16:42:36.527Z,102011.22
2023-05-12T16:45:03.093Z,102014.88
2023-05-12T16:47:29.757Z,102018.34
2023-05-12T16:49:58.073Z,102017.53
2023-05-12T16:52:25.273Z,102014.69
2023-05-12T16:54:51.841Z,102019.38
2023-05-12T16:57:18.739Z,102023.22
2023-05-12T16:59:45.437Z,102015.53
2023-05-12T17:02:11.892Z,102016.38
2023-05-12T17:04:38.299Z,102023.84
2023-05-12T17:07:04.889Z,102026.28
2023-05-12T17:09:31.301Z,102031.97
2023-05-12T17:11:57.697Z,102028.25
2023-05-12T17:14:24.137Z,102033.72
2023-05-12T17:16:50.506Z,102026.81
2023-05-12T17:19:17.005Z,102033.72
2023-05-12T17:21:43.432Z,102035.09
2023-05-12T17:24:10.042Z,102034.31
2023-05-12T17:26:36.476Z,102031.50
2023-05-12T17:29:03.100Z,102040.41
2023-05-12T17:31:29.673Z,102041.84
2023-05-12T17:33:56.209Z,102041.84
2023-05-12T17:36:23.180Z,102037.56
2023-05-12T17:38:51.049Z,102048.31
2023-05-12T17:41:18.151Z,102046.47
2023-05-12T17:43:44.565Z,102042.63
2023-05-12T17:46:10.934Z,102041.78
2023-05-12T17:48:38.500Z,102049.69
2023-05-12T17:51:05.311Z,102048.88
2023-05-12T17:53:32.362Z,102051.50
2023-05-12T17:55:58.954Z,102048.50
2023-05-12T17:58:25.469Z,102054.59
2023-05-12T18:00:52.202Z,102049.94
2023-05-12T18:03:23.275Z,102054.22
2023-05-12T18:05:52.082Z,102060.06
2023-05-12T18:08:18.935Z,102057.44
2023-05-12T18:10:45.660Z,102063.13
2023-05-12T18:13:12.176Z,102063.13
2023-05-12T18:15:38.583Z,102070.84
2023-05-12T18:18:09.067Z,102071.47
2023-05-12T18:20:35.647Z,102072.88
2023-05-12T18:23:02.155Z,102074.94
2023-05-12T18:25:28.566Z,102082.88
2023-05-12T18:27:54.936Z,102078.81
2023-05-12T18:30:21.330Z,102081.66
2023-05-12T18:32:47.842Z,102077.44
2023-05-12T18:35:14.324Z,102082.72
2023-05-12T18:37:40.762Z,102086.38
2023-05-12T18:40:08.269Z,102086.59
2023-05-12T18:42:34.915Z,102087.19
2023-05-12T18:45:01.643Z,102088.81
2023-05-12T18:47:28.561Z,102093.66
2023-05-12T18:49:55.082Z,102090.63
2023-05-12T18:52:21.488Z,102089.78
2023-05-12T18:54:49.671Z,102101.94
2023-05-12T18:57:16.892Z,102104.34
2023-05-12T18:59:43.513Z,102102.69
2023-05-12T19:02:10.207Z,102098.03
2023-05-12T19:04:37.001Z,102109.72
2023-05-12T19:07:03.952Z,102121.25
2023-05-12T19:09:30.501Z,102117.97
2023-05-12T19:11:56.893Z,102118.34
2023-05-12T19:14:23.781Z,102123.94
2023-05-12T19:16:50.301Z,102126.56
2023-05-12T19:19:17.272Z,102123.09
2023-05-12T19:21:43.948Z,102124.06
2023-05-12T19:24:10.646Z,102129.28
2023-05-12T19:26:37.397Z,102136.72
2023-05-12T19:29:04.421Z,102143.53
2023-05-12T19:31:31.210Z,102150.34
2023-05-12T19:33:57.674Z,102145.50
2023-05-12T19:36:24.211Z,102149.25
2023-05-12T19:38:50.651Z,102152.63
2023-05-12T19:41:17.043Z,102152.59
2023-05-12T19:43:43.499Z,102156.78
2023-05-12T19:46:09.971Z,102155.13
2023-05-12T19:48:36.459Z,102162.75
2023-05-12T19:51:03.088Z,102165.50
2023-05-12T19:53:29.534Z,102168.84
2023-05-12T19:55:56.629Z,102168.81
2023-05-12T19:58:23.194Z,102169.16
2023-05-12T20:00:49.716Z,102171.34
2023-05-12T20:03:16.216Z,102175.41
2023-05-12T20:05:42.732Z,102170.97
2023-05-12T20:08:09.197Z,102168.28
2023-05-12T20:10:35.734Z,102173.53
2023-05-12T20:13:05.392Z,102183.38
2023-05-12T20:15:33.962Z,102177.53
2023-05-12T20:18:00.857Z,102184.13
2023-05-12T20:20:27.306Z,102191.13
2023-05-12T20:22:53.768Z,102192.72
2023-05-12T20:25:20.410Z,102186.50
2023-05-12T20:27:48.002Z,102189.31
2023-05-12T20:30:14.591Z,102198.31
2023-05-12T20:32:41.061Z,102197.72
2023-05-12T20:35:07.903Z,102193.38
2023-05-12T20:37:34.331Z,102203.06
2023-05-12T20:40:00.788Z,102201.81
2023-05-12T20:42:27.227Z,102203.13
2023-05-12T20:44:53.837Z,102204.59
2023-05-12T20:47:20.409Z,102216.78
2023-05-12T20:49:47.129Z,102205.56
2023-05-12T20:52:13.594Z,102212.72
2023-05-12T20:54:39.966Z,102211.19
2023-05-12T20:57:06.432Z,102220.88
2023-05-12T20:59:32.896Z,102218.69
2023-05-12T21:01:59.295Z,102219.06
2023-05-12T21:04:25.979Z,102224.28
2023-05-12T21:06:53.802Z,102219.69
2023-05-12T21:09:20.401Z,102226.25
2023-05-12T21:11:47.206Z,102229.81
2023-05-12T21:14:13.658Z,102229.50
2023-05-12T21:16:40.264Z,102237.09
2023-05-12T21:19:07.108Z,102232.28
2023-05-12T21:21:33.764Z,102238.88
2023-05-12T21:24:00.200Z,102234.81
2023-05-12T21:26:27.208Z,102234.09
2023-05-12T21:28:53.643Z,102239.59
2023-05-12T21:31:20.114Z,102240.28
2023-05-12T21:33:46.729Z,102244.28
2023-05-12T21:36:13.363Z,102242.94
2023-05-12T21:38:39.779Z,102240.50
2023-05-12T21:41:06.285Z,102245.91
2023-05-12T21:43:32.737Z,102249.00
2023-05-12T21:46:03.683Z,102252.59
2023-05-12T21:48:30.483Z,102250.97
2023-05-12T21:50:58.852Z,102251.13
2023-05-12T21:53:25.384Z,102254.66
2023-05-12T21:55:51.773Z,102250.59
2023-05-12T21:58:18.368Z,102251.56
2023-05-12T22:00:44.817Z,102249.06
2023-05-12T22:03:11.299Z,102256.03
2023-05-12T22:05:37.854Z,102254.06
2023-05-12T22:08:04.315Z,102256.50
2023-05-12T22:10:31.945Z,102253.88
2023-05-12T22:12:58.346Z,102253.88
2023-05-12T22:15:24.740Z,102254.88
2023-05-12T22:17:51.630Z,102260.28
2023-05-12T22:20:18.948Z,102255.84
2023-05-12T22:22:45.629Z,102262.78
2023-05-12T22:25:12.127Z,102265.69
2023-05-12T22:27:38.578Z,102281.56
2023-05-12T22:30:05.948Z,102273.88
2023-05-12T22:32:32.379Z,102277.03
2023-05-12T22:34:58.750Z,102274.94
2023-05-12T22:37:26.432Z,102279.13
2023-05-12T22:39:52.823Z,102284.34
2023-05-12T22:42:19.491Z,102277.38
2023-05-12T22:44:45.958Z,102281.47
2023-05-12T22:47:12.654Z,102283.09
2023-05-12T22:49:39.148Z,102282.19
2023-05-12T22:52:06.074Z,102285.66
2023-05-12T22:54:32.557Z,102279.22
2023-05-12T22:56:58.897Z,102277.63
2023-05-12T22:59:25.397Z,102274.16
2023-05-12T23:01:51.814Z,102277.50
2023-05-12T23:04:18.253Z,102282.19
2023-05-12T23:06:44.688Z,102283.38
2023-05-12T23:09:11.363Z,102286.97
2023-05-12T23:11:37.752Z,102284.69
2023-05-12T23:14:04.194Z,102281.19
2023-05-12T23:16:30.723Z,102284.16
2023-05-12T23:18:57.215Z,102285.56
2023-05-12T23:21:23.651Z,102287.56
2023-05-12T23:23:50.057Z,102292.00
2023-05-12T23:26:16.409Z,102279.53
2023-05-12T23:28:42.773Z,102275.19
2023-05-12T23:31:10.184Z,102280.78
2023-05-12T23:33:36.808Z,102272.16
2023-05-12T23:36:03.566Z,102275.97
2023-05-12T23:38:29.928Z,102269.44
2023-05-12T23:40:56.297Z,102267.00
2023-05-12T23:43:22.788Z,102267.16
2023-05-12T23:45:49.368Z,102276.81
2023-05-12T23:48:15.793Z,102266.56
2023-05-12T23:50:42.265Z,102265.72
2023-05-12T23:53:08.778Z,102263.50
2023-05-12T23:55:36.886Z,102264.22
2023-05-12T23:58:03.353Z,102272.13
